Time,TemperatureF,DewpointF,PressureIn,WindDirection,WindDirectionDegrees,WindSpeedMPH,WindSpeedGustMPH,Humidity,HourlyPrecipIn,Conditions,Clouds,dailyrainin,SoftwareType,DateUTC
2013-11-11 00:00:00,47.5,26.1,29.98,NNW,338,10.4,10.4,43,0.00,-RA,,0.00,WeatherDisplay:10.37,2013-11-11 05:00:00,
2013-11-11 00:01:00,47.5,26.1,29.98,NNW,338,10.4,10.4,43,0.00,-RA,,0.00,WeatherDisplay:10.37,2013-11-11 05:01:00,
2013-11-11 00:02:00,47.5,26.1,29.98,NNW,338,9.2,9.2,43,0.00,-RA,,0.00,WeatherDisplay:10.37,2013-11-11 05:02:00,
2013-11-11 00:03:00,47.5,26.1,29.98,NNW,338,9.2,9.2,43,0.00,-RA,,0.00,WeatherDisplay:10.37,2013-11-11 05:03:00,
2013-11-11 00:05:00,47.5,26.1,29.98,NNW,338,9.2,9.2,43,0.00,-RA,,0.00,WeatherDisplay:10.37,2013-11-11 05:05:00,
2013-11-11 00:10:00,47.3,25.9,29.99,NNW,338,9.2,9.2,43,0.00,-RA,,0.00,WeatherDisplay:10.37,2013-11-11 05:10:00,
2013-11-11 00:15:00,47.3,26.5,29.99,WNW,292,10.9,10.9,44,0.00,-RA,,0.00,WeatherDisplay:10.37,2013-11-11 05:15:00,
2013-11-11 00:20:00,47.5,26.6,29.99,WNW,292,13.8,13.8,44,0.00,SCT,,0.00,WeatherDisplay:10.37,2013-11-11 05:20:00,
2013-11-11 00:26:00,47.3,27.0,29.99,WNW,292,6.9,6.9,45,0.00,SCT,,0.00,WeatherDisplay:10.37,2013-11-11 05:26:00,
2013-11-11 00:31:00,47.3,27.0,30.00,WSW,248,6.9,6.9,45,0.00,SCT,,0.00,WeatherDisplay:10.37,2013-11-11 05:31:00,
2013-11-11 00:36:00,47.1,26.8,30.00,NW,315,8.1,8.1,45,0.00,SCT,,0.00,WeatherDisplay:10.37,2013-11-11 05:36:00,
2013-11-11 00:41:00,47.1,26.8,30.00,West,270,6.9,6.9,45,0.00,SCT,,0.00,WeatherDisplay:10.37,2013-11-11 05:41:00,
2013-11-11 00:46:00,47.1,26.8,30.00,WSW,248,12.7,12.7,45,0.00,SCT,,0.00,WeatherDisplay:10.37,2013-11-11 05:46:00,
2013-11-11 00:51:00,46.9,26.7,30.01,NNW,338,6.9,6.9,45,0.00,SCT,,0.00,WeatherDisplay:10.37,2013-11-11 05:51:00,
2013-11-11 00:56:00,47.1,26.8,30.01,SSW,202,11.5,11.5,45,0.00,SCT,,0.00,WeatherDisplay:10.37,2013-11-11 05:56:00,
2013-11-11 01:01:00,46.9,26.7,30.01,NW,315,11.5,11.5,45,0.00,SCT,,0.00,WeatherDisplay:10.37,2013-11-11 06:01:00,
2013-11-11 01:06:00,46.8,26.5,30.01,NW,315,11.5,11.5,45,0.00,SCT,,0.00,WeatherDisplay:10.37,2013-11-11 06:06:00,
2013-11-11 01:11:00,46.6,26.4,30.02,WNW,292,11.5,11.5,45,0.00,SCT,,0.00,WeatherDisplay:10.37,2013-11-11 06:11:00,
2013-11-11 01:16:00,46.6,26.4,30.02,West,270,5.8,6.1,45,0.00,SCT,,0.00,WeatherDisplay:10.37,2013-11-11 06:16:00,
2013-11-11 01:21:00,46.6,26.4,30.02,WNW,292,10.4,10.4,45,0.00,SCT,,0.00,WeatherDisplay:10.37,2013-11-11 06:21:00,
2013-11-11 01:26:00,46.6,26.4,30.02,NW,315,4.6,4.8,45,0.00,SCT,,0.00,WeatherDisplay:10.37,2013-11-11 06:26:00,
2013-11-11 01:31:00,46.6,26.4,30.03,West,270,5.8,5.8,45,0.00,SCT,,0.00,WeatherDisplay:10.37,2013-11-11 06:31:00,
2013-11-11 01:36:00,46.4,26.2,30.03,WNW,292,5.8,5.8,45,0.00,SCT,,0.00,WeatherDisplay:10.37,2013-11-11 06:36:00,
2013-11-11 01:41:00,46.4,26.2,30.03,West,270,5.8,5.8,45,0.00,SCT,,0.00,WeatherDisplay:10.37,2013-11-11 06:41:00,
2013-11-11 01:46:00,46.0,25.9,30.03,West,270,4.6,4.6,45,0.00,SCT,,0.00,WeatherDisplay:10.37,2013-11-11 06:46:00,
2013-11-11 01:51:00,46.0,25.9,30.05,NW,315,4.6,4.6,45,0.00,SCT,,0.00,WeatherDisplay:10.37,2013-11-11 06:51:00,
2013-11-11 01:56:00,46.0,25.9,30.05,NW,315,5.8,5.8,45,0.00,SCT,,0.00,WeatherDisplay:10.37,2013-11-11 06:56:00,
2013-11-11 02:01:00,45.9,25.7,30.05,WSW,248,1.2,2.2,45,0.00,SCT,,0.00,WeatherDisplay:10.37,2013-11-11 07:01:00,
2013-11-11 02:06:00,45.9,25.7,30.05,WSW,248,2.3,2.3,45,0.00,SCT,,0.00,WeatherDisplay:10.37,2013-11-11 07:06:00,
2013-11-11 02:11:00,46.0,25.9,30.05,WSW,248,3.5,3.5,45,0.00,SCT,,0.00,WeatherDisplay:10.37,2013-11-11 07:11:00,
2013-11-11 02:16:00,45.9,25.7,30.05,WSW,248,2.3,2.3,45,0.00,SCT,,0.00,WeatherDisplay:10.37,2013-11-11 07:16:00,
2013-11-11 02:21:00,45.9,25.7,30.05,West,270,4.6,4.6,45,0.00,SCT,,0.00,WeatherDisplay:10.37,2013-11-11 07:21:00,
2013-11-11 02:26:00,45.7,26.1,30.05,West,270,4.6,4.6,46,0.00,SCT,,0.00,WeatherDisplay:10.37,2013-11-11 07:26:00,
2013-11-11 02:31:00,45.7,26.1,30.06,SW,225,4.6,4.6,46,0.00,SCT,,0.00,WeatherDisplay:10.37,2013-11-11 07:31:00,
2013-11-11 02:36:00,45.7,26.1,30.06,WNW,292,3.5,3.5,46,0.00,SCT,,0.00,WeatherDisplay:10.37,2013-11-11 07:36:00,
2013-11-11 02:41:00,45.7,26.1,30.06,NW,315,3.0,3.0,46,0.00,SCT,,0.00,WeatherDisplay:10.37,2013-11-11 07:41:00,
2013-11-11 02:46:00,45.7,26.1,30.06,WNW,292,4.6,4.6,46,0.00,SCT,,0.00,WeatherDisplay:10.37,2013-11-11 07:46:00,
2013-11-11 02:51:00,45.5,25.9,30.06,WNW,292,3.6,3.6,46,0.00,SCT,,0.00,WeatherDisplay:10.37,2013-11-11 07:51:00,
2013-11-11 02:56:00,45.3,25.7,30.06,West,270,4.6,4.6,46,0.00,SCT,,0.00,WeatherDisplay:10.37,2013-11-11 07:56:00,
2013-11-11 03:01:00,45.3,25.7,30.06,West,270,3.7,3.7,46,0.00,SCT,,0.00,WeatherDisplay:10.37,2013-11-11 08:01:00,
2013-11-11 03:06:00,45.1,25.6,30.06,WNW,292,3.5,3.5,46,0.00,SCT,,0.00,WeatherDisplay:10.37,2013-11-11 08:06:00,
2013-11-11 03:11:00,45.1,26.1,30.06,WNW,292,3.5,3.5,47,0.00,SCT,,0.00,WeatherDisplay:10.37,2013-11-11 08:11:00,
2013-11-11 03:16:00,45.1,26.1,30.06,West,270,4.6,4.6,47,0.00,SCT,,0.00,WeatherDisplay:10.37,2013-11-11 08:16:00,
2013-11-11 03:21:00,45.1,26.1,30.06,West,270,4.6,4.6,47,0.00,SCT,,0.00,WeatherDisplay:10.37,2013-11-11 08:21:00,
2013-11-11 03:26:00,45.0,25.9,30.06,West,270,3.5,3.5,47,0.00,SCT,,0.00,WeatherDisplay:10.37,2013-11-11 08:26:00,
2013-11-11 03:31:00,45.0,25.9,30.07,West,270,3.7,3.7,47,0.00,SCT,,0.00,WeatherDisplay:10.37,2013-11-11 08:31:00,
2013-11-11 03:36:00,44.8,25.8,30.07,WSW,248,4.0,4.0,47,0.00,SCT,,0.00,WeatherDisplay:10.37,2013-11-11 08:36:00,
2013-11-11 03:41:00,45.0,25.9,30.07,WSW,248,4.6,4.6,47,0.00,SCT,,0.00,WeatherDisplay:10.37,2013-11-11 08:41:00,
2013-11-11 03:46:00,44.6,25.6,30.07,West,270,3.6,3.6,47,0.00,SCT,,0.00,WeatherDisplay:10.37,2013-11-11 08:46:00,
2013-11-11 03:51:00,44.6,25.6,30.08,WSW,248,3.5,3.5,47,0.00,SCT,,0.00,WeatherDisplay:10.37,2013-11-11 08:51:00,
2013-11-11 03:56:00,44.4,25.4,30.08,NW,315,3.5,3.5,47,0.00,SCT,,0.00,WeatherDisplay:10.37,2013-11-11 08:56:00,
2013-11-11 04:01:00,44.4,25.4,30.08,West,270,3.5,3.5,47,0.00,SCT,,0.00,WeatherDisplay:10.37,2013-11-11 09:01:00,
2013-11-11 04:06:00,44.4,25.4,30.08,WSW,248,5.8,5.8,47,0.00,SCT,,0.00,WeatherDisplay:10.37,2013-11-11 09:06:00,
2013-11-11 04:11:00,44.6,25.6,30.09,West,270,2.3,3.6,47,0.00,SCT,,0.00,WeatherDisplay:10.37,2013-11-11 09:11:00,
2013-11-11 04:16:00,44.4,25.9,30.09,WSW,248,1.2,1.9,48,0.00,SCT,,0.00,WeatherDisplay:10.37,2013-11-11 09:16:00,
2013-11-11 04:21:00,44.4,25.9,30.09,WSW,248,1.2,1.2,48,0.00,SCT,,0.00,WeatherDisplay:10.37,2013-11-11 09:21:00,
2013-11-11 04:26:00,44.2,25.8,30.09,SSW,202,2.4,2.4,48,0.00,SCT,,0.00,WeatherDisplay:10.37,2013-11-11 09:26:00,
2013-11-11 04:31:00,43.9,25.4,30.10,West,270,2.3,2.3,48,0.00,SCT,,0.00,WeatherDisplay:10.37,2013-11-11 09:31:00,
2013-11-11 04:36:00,43.7,25.8,30.10,South,180,0.0,0.2,49,0.00,SCT,,0.00,WeatherDisplay:10.37,2013-11-11 09:36:00,
2013-11-11 04:41:00,43.5,25.6,30.10,South,180,2.3,2.3,49,0.00,SCT,,0.00,WeatherDisplay:10.37,2013-11-11 09:41:00,
2013-11-11 04:46:00,43.3,25.9,30.10,South,180,0.0,0.5,50,0.00,SCT,,0.00,WeatherDisplay:10.37,2013-11-11 09:46:00,
2013-11-11 04:51:00,43.0,25.6,30.10,SW,225,0.0,0.1,50,0.00,SCT,,0.00,WeatherDisplay:10.37,2013-11-11 09:51:00,
2013-11-11 04:56:00,42.6,25.7,30.10,South,180,0.0,0.0,51,0.00,SCT,,0.00,WeatherDisplay:10.37,2013-11-11 09:56:00,
2013-11-11 05:01:00,42.3,25.9,30.10,WSW,248,0.0,0.1,52,0.00,SCT,,0.00,WeatherDisplay:10.37,2013-11-11 10:01:00,
2013-11-11 05:06:00,42.1,25.7,30.10,SSW,202,1.2,1.2,52,0.00,SCT,,0.00,WeatherDisplay:10.37,2013-11-11 10:06:00,
2013-11-11 05:11:00,41.9,26.0,30.10,SSW,202,1.2,1.2,53,0.00,SCT,,0.00,WeatherDisplay:10.37,2013-11-11 10:11:00,
2013-11-11 05:16:00,41.7,25.8,30.10,SW,225,1.2,1.2,53,0.00,SCT,,0.00,WeatherDisplay:10.37,2013-11-11 10:16:00,
2013-11-11 05:21:00,41.5,25.7,30.10,SW,225,0.0,0.2,53,0.00,SCT,,0.00,WeatherDisplay:10.37,2013-11-11 10:21:00,
2013-11-11 05:26:00,41.4,25.5,30.10,West,270,1.4,1.4,53,0.00,SCT,,0.00,WeatherDisplay:10.37,2013-11-11 10:26:00,
2013-11-11 05:31:00,41.4,25.9,30.10,West,270,1.5,1.5,54,0.00,SCT,,0.00,WeatherDisplay:10.37,2013-11-11 10:31:00,
2013-11-11 05:36:00,41.2,25.8,30.10,West,270,2.3,2.3,54,0.00,SCT,,0.00,WeatherDisplay:10.37,2013-11-11 10:36:00,
2013-11-11 05:41:00,41.4,25.9,30.10,West,270,2.3,2.3,54,0.00,SCT,,0.00,WeatherDisplay:10.37,2013-11-11 10:41:00,
2013-11-11 05:46:00,41.5,26.1,30.10,WSW,248,1.2,1.6,54,0.00,SCT,,0.00,WeatherDisplay:10.37,2013-11-11 10:46:00,
2013-11-11 05:51:00,41.4,25.9,30.11,West,270,0.0,0.7,54,0.00,SCT,,0.00,WeatherDisplay:10.37,2013-11-11 10:51:00,
2013-11-11 05:56:00,40.8,25.4,30.11,WSW,248,2.3,2.3,54,0.00,SCT,,0.00,WeatherDisplay:10.37,2013-11-11 10:56:00,
2013-11-11 06:01:00,40.8,25.4,30.11,West,270,1.2,1.2,54,0.00,SCT,,0.00,WeatherDisplay:10.37,2013-11-11 11:01:00,
2013-11-11 06:06:00,40.8,25.9,30.11,West,270,1.2,1.2,55,0.00,SCT,,0.00,WeatherDisplay:10.37,2013-11-11 11:06:00,
2013-11-11 06:11:00,41.0,26.1,30.12,West,270,1.2,1.2,55,0.00,SCT,,0.00,WeatherDisplay:10.37,2013-11-11 11:11:00,
2013-11-11 06:16:00,41.2,26.2,30.12,West,270,2.3,2.3,55,0.00,SCT,,0.00,WeatherDisplay:10.37,2013-11-11 11:16:00,
2013-11-11 06:21:00,41.0,25.6,30.12,West,270,2.6,2.6,54,0.00,SCT,,0.00,WeatherDisplay:10.37,2013-11-11 11:21:00,
2013-11-11 06:26:00,41.4,25.9,30.12,West,270,2.3,2.3,54,0.00,SCT,,0.00,WeatherDisplay:10.37,2013-11-11 11:26:00,
2013-11-11 06:31:00,41.4,25.9,30.13,West,270,2.7,2.7,54,0.00,SCT,,0.00,WeatherDisplay:10.37,2013-11-11 11:31:00,
2013-11-11 06:36:00,41.4,25.9,30.13,West,270,3.5,3.5,54,0.00,SCT,,0.00,WeatherDisplay:10.37,2013-11-11 11:36:00,
2013-11-11 06:41:00,41.5,26.1,30.13,West,270,2.3,2.3,54,0.00,SCT,,0.00,WeatherDisplay:10.37,2013-11-11 11:41:00,
2013-11-11 06:46:00,41.7,26.3,30.13,West,270,2.3,2.3,54,0.00,SCT,,0.00,WeatherDisplay:10.37,2013-11-11 11:46:00,
2013-11-11 06:51:00,41.5,26.1,30.14,West,270,2.3,2.3,54,0.00,SCT,,0.00,WeatherDisplay:10.37,2013-11-11 11:51:00,
2013-11-11 06:56:00,41.5,26.1,30.14,West,270,0.0,0.7,54,0.00,SCT,,0.00,WeatherDisplay:10.37,2013-11-11 11:56:00,
2013-11-11 07:01:00,41.4,26.4,30.14,SSE,158,0.0,0.2,55,0.00,SCT,,0.00,WeatherDisplay:10.37,2013-11-11 12:01:00,
2013-11-11 07:06:00,41.0,26.1,30.14,South,180,0.0,0.0,55,0.00,SCT,,0.00,WeatherDisplay:10.37,2013-11-11 12:06:00,
2013-11-11 07:11:00,40.8,25.9,30.14,SSW,202,1.2,1.2,55,0.00,SCT,,0.00,WeatherDisplay:10.37,2013-11-11 12:11:00,
2013-11-11 07:16:00,40.8,25.9,30.14,SW,225,1.5,1.5,55,0.00,SCT,,0.00,WeatherDisplay:10.37,2013-11-11 12:16:00,
2013-11-11 07:21:00,40.6,26.2,30.14,SW,225,1.2,1.2,56,0.00,SCT,,0.00,WeatherDisplay:10.37,2013-11-11 12:21:00,
2013-11-11 07:26:00,40.8,26.3,30.14,WSW,248,2.3,2.3,56,0.00,SCT,,0.00,WeatherDisplay:10.37,2013-11-11 12:26:00,
2013-11-11 07:31:00,41.0,26.5,30.14,WSW,248,2.3,2.3,56,0.00,SCT,,0.00,WeatherDisplay:10.37,2013-11-11 12:31:00,
2013-11-11 07:36:00,41.4,26.4,30.14,West,270,2.4,2.4,55,0.00,SCT,,0.00,WeatherDisplay:10.37,2013-11-11 12:36:00,
2013-11-11 07:41:00,41.7,26.7,30.14,West,270,2.3,2.3,55,0.00,SCT,,0.00,WeatherDisplay:10.37,2013-11-11 12:41:00,
2013-11-11 07:46:00,42.1,26.6,30.14,West,270,3.7,3.7,54,0.00,SCT,,0.00,WeatherDisplay:10.37,2013-11-11 12:46:00,
2013-11-11 07:51:00,42.4,27.0,30.15,West,270,4.0,4.0,54,0.00,SCT,,0.00,WeatherDisplay:10.37,2013-11-11 12:51:00,
2013-11-11 07:56:00,42.8,26.8,30.15,West,270,2.3,2.6,53,0.00,SCT,,0.00,WeatherDisplay:10.37,2013-11-11 12:56:00,
2013-11-11 08:01:00,43.0,27.0,30.15,NW,315,3.5,3.5,53,0.00,SCT,,0.00,WeatherDisplay:10.37,2013-11-11 13:01:00,
2013-11-11 08:06:00,43.3,27.3,30.15,West,270,1.4,2.1,53,0.00,SCT,,0.00,WeatherDisplay:10.37,2013-11-11 13:06:00,
2013-11-11 08:11:00,43.5,27.5,30.15,West,270,2.4,2.4,53,0.00,SCT,,0.00,WeatherDisplay:10.37,2013-11-11 13:11:00,
2013-11-11 08:16:00,43.9,27.4,30.15,WSW,248,4.6,4.6,52,0.00,SCT,,0.00,WeatherDisplay:10.37,2013-11-11 13:16:00,
2013-11-11 08:21:00,43.9,27.4,30.15,West,270,2.4,2.4,52,0.00,SCT,,0.00,WeatherDisplay:10.37,2013-11-11 13:21:00,
2013-11-11 08:26:00,44.2,27.2,30.15,West,270,3.5,3.5,51,0.00,SCT,,0.00,WeatherDisplay:10.37,2013-11-11 13:26:00,
2013-11-11 08:31:00,44.4,27.4,30.15,WSW,248,3.5,3.5,51,0.00,SCT,,0.00,WeatherDisplay:10.37,2013-11-11 13:31:00,
2013-11-11 08:36:00,44.8,27.7,30.15,WSW,248,2.4,2.4,51,0.00,SCT,,0.00,WeatherDisplay:10.37,2013-11-11 13:36:00,
2013-11-11 08:41:00,45.0,27.4,30.15,WSW,248,3.5,3.5,50,0.00,SCT,,0.00,WeatherDisplay:10.37,2013-11-11 13:41:00,
2013-11-11 08:46:00,45.3,27.8,30.15,West,270,2.7,2.7,50,0.00,SCT,,0.00,WeatherDisplay:10.37,2013-11-11 13:46:00,
2013-11-11 08:51:00,45.5,27.9,30.15,SW,225,2.3,2.3,50,0.00,SCT,,0.00,WeatherDisplay:10.37,2013-11-11 13:51:00,
2013-11-11 08:56:00,45.9,28.3,30.15,WSW,248,2.3,2.3,50,0.00,SCT,,0.00,WeatherDisplay:10.37,2013-11-11 13:56:00,
2013-11-11 09:01:00,46.4,28.3,30.15,WNW,292,2.3,2.3,49,0.00,SCT,,0.00,WeatherDisplay:10.37,2013-11-11 14:01:00,
2013-11-11 09:06:00,46.2,28.1,30.15,WSW,248,2.3,2.4,49,0.00,SCT,,0.00,WeatherDisplay:10.37,2013-11-11 14:06:00,
2013-11-11 09:11:00,46.8,28.1,30.15,West,270,5.0,5.0,48,0.00,SCT,,0.00,WeatherDisplay:10.37,2013-11-11 14:11:00,
2013-11-11 09:16:00,46.8,28.6,30.15,NW,315,3.5,3.5,49,0.00,SCT,,0.00,WeatherDisplay:10.37,2013-11-11 14:16:00,
2013-11-11 09:21:00,46.9,28.3,30.15,NW,315,4.6,4.6,48,0.00,SCT,,0.00,WeatherDisplay:10.37,2013-11-11 14:21:00,
2013-11-11 09:26:00,47.1,28.4,30.15,WNW,292,4.7,4.7,48,0.00,SCT,,0.00,WeatherDisplay:10.37,2013-11-11 14:26:00,
2013-11-11 09:31:00,47.1,27.9,30.14,WSW,248,6.9,6.9,47,0.00,SCT,,0.00,WeatherDisplay:10.37,2013-11-11 14:31:00,
2013-11-11 09:36:00,47.1,28.4,30.14,NW,315,5.8,5.8,48,0.00,SCT,,0.00,WeatherDisplay:10.37,2013-11-11 14:36:00,
2013-11-11 09:41:00,47.3,28.1,30.14,NW,315,5.8,5.8,47,0.00,SCT,,0.00,WeatherDisplay:10.37,2013-11-11 14:41:00,
2013-11-11 09:46:00,47.1,27.9,30.14,NW,315,5.8,5.8,47,0.00,SCT,,0.00,WeatherDisplay:10.37,2013-11-11 14:46:00,
2013-11-11 09:51:00,47.5,28.2,30.14,WSW,248,5.8,5.8,47,0.00,SCT,,0.00,WeatherDisplay:10.37,2013-11-11 14:51:00,
2013-11-11 09:56:00,47.7,28.4,30.14,NW,315,7.1,7.1,47,0.00,SCT,,0.00,WeatherDisplay:10.37,2013-11-11 14:56:00,
2013-11-11 10:01:00,47.8,28.6,30.14,NW,315,4.6,4.6,47,0.00,SCT,,0.00,WeatherDisplay:10.37,2013-11-11 15:01:00,
2013-11-11 10:06:00,48.0,28.7,30.14,NW,315,4.6,4.6,47,0.00,SCT,,0.00,WeatherDisplay:10.37,2013-11-11 15:06:00,
2013-11-11 10:11:00,48.4,28.5,30.13,WNW,292,4.6,4.6,46,0.00,SCT,,0.00,WeatherDisplay:10.37,2013-11-11 15:11:00,
2013-11-11 10:16:00,49.3,29.4,30.13,NW,315,6.9,6.9,46,0.00,SCT,,0.00,WeatherDisplay:10.37,2013-11-11 15:16:00,
2013-11-11 10:21:00,50.7,30.1,30.13,NW,315,8.1,8.1,45,0.00,SCT,,0.00,WeatherDisplay:10.37,2013-11-11 15:21:00,
2013-11-11 10:26:00,51.4,29.7,30.13,West,270,8.1,8.1,43,0.00,SCT,,0.00,WeatherDisplay:10.37,2013-11-11 15:26:00,
2013-11-11 10:31:00,51.3,29.5,30.13,NNW,338,13.8,13.8,43,0.00,SCT,,0.00,WeatherDisplay:10.37,2013-11-11 15:31:00,
2013-11-11 10:36:00,51.6,29.8,30.13,NW,315,8.1,8.1,43,0.00,SCT,,0.00,WeatherDisplay:10.37,2013-11-11 15:36:00,
2013-11-11 10:41:00,51.8,30.0,30.13,NNW,338,9.2,9.2,43,0.00,SCT,,0.00,WeatherDisplay:10.37,2013-11-11 15:41:00,
2013-11-11 10:46:00,51.8,30.0,30.13,NNW,338,8.1,8.1,43,0.00,SCT,,0.00,WeatherDisplay:10.37,2013-11-11 15:46:00,
2013-11-11 10:51:00,52.0,30.2,30.11,NW,315,5.8,5.8,43,0.00,SCT,,0.00,WeatherDisplay:10.37,2013-11-11 15:51:00,
2013-11-11 10:56:00,52.3,30.5,30.11,NW,315,3.5,3.5,43,0.00,SCT,,0.00,WeatherDisplay:10.37,2013-11-11 15:56:00,
2013-11-11 11:01:00,52.9,31.0,30.11,SW,225,2.3,2.7,43,0.00,SCT,,0.00,WeatherDisplay:10.37,2013-11-11 16:01:00,
2013-11-11 11:06:00,53.8,31.2,30.11,NW,315,4.6,4.6,42,0.00,SCT,,0.00,WeatherDisplay:10.37,2013-11-11 16:06:00,
2013-11-11 11:11:00,54.3,30.5,30.11,SW,225,6.9,6.9,40,0.00,SCT,,0.00,WeatherDisplay:10.37,2013-11-11 16:11:00,
2013-11-11 11:16:00,54.7,30.8,30.11,WSW,248,4.6,4.6,40,0.00,SCT,,0.00,WeatherDisplay:10.37,2013-11-11 16:16:00,
2013-11-11 11:21:00,54.1,30.3,30.11,NW,315,6.9,6.9,40,0.00,SCT,,0.00,WeatherDisplay:10.37,2013-11-11 16:21:00,
2013-11-11 11:26:00,53.8,30.0,30.11,SW,225,4.6,4.6,40,0.00,SCT,,0.00,WeatherDisplay:10.37,2013-11-11 16:26:00,
2013-11-11 11:31:00,52.9,29.2,30.10,NW,315,10.4,10.4,40,0.00,SCT,,0.00,WeatherDisplay:10.37,2013-11-11 16:31:00,
2013-11-11 11:36:00,52.9,30.4,30.10,WNW,292,5.8,5.8,42,0.00,SCT,,0.00,WeatherDisplay:10.37,2013-11-11 16:36:00,
2013-11-11 11:41:00,54.1,30.9,30.10,NW,315,5.8,5.8,41,0.00,SCT,,0.00,WeatherDisplay:10.37,2013-11-11 16:41:00,
2013-11-11 11:46:00,54.7,31.4,30.10,NNW,338,4.6,4.6,41,0.00,SCT,,0.00,WeatherDisplay:10.37,2013-11-11 16:46:00,
2013-11-11 11:51:00,55.4,31.5,30.09,WSW,248,5.8,5.8,40,0.00,SCT,,0.00,WeatherDisplay:10.37,2013-11-11 16:51:00,
2013-11-11 11:56:00,55.4,31.5,30.09,SSE,158,4.6,4.6,40,0.00,SCT,,0.00,WeatherDisplay:10.37,2013-11-11 16:56:00,
2013-11-11 12:01:00,54.7,30.2,30.09,WNW,292,4.6,4.6,39,0.00,SCT,,0.00,WeatherDisplay:10.37,2013-11-11 17:01:00,
2013-11-11 12:06:00,54.3,30.5,30.09,NW,315,3.7,3.7,40,0.00,SCT,,0.00,WeatherDisplay:10.37,2013-11-11 17:06:00,
2013-11-11 12:11:00,54.1,30.9,30.09,NW,315,3.5,3.7,41,0.00,SCT,,0.00,WeatherDisplay:10.37,2013-11-11 17:11:00,
2013-11-11 12:16:00,55.2,31.3,30.09,West,270,4.6,4.6,40,0.00,SCT,,0.00,WeatherDisplay:10.37,2013-11-11 17:16:00,
2013-11-11 12:21:00,56.7,32.0,30.09,South,180,5.8,5.8,39,0.00,SCT,,0.00,WeatherDisplay:10.37,2013-11-11 17:21:00,
2013-11-11 12:26:00,55.0,29.9,30.09,WSW,248,6.9,6.9,38,0.00,SCT,,0.00,WeatherDisplay:10.37,2013-11-11 17:26:00,
2013-11-11 12:31:00,53.8,30.0,30.07,West,270,4.6,4.6,40,0.00,SCT,,0.00,WeatherDisplay:10.37,2013-11-11 17:31:00,
2013-11-11 12:36:00,53.4,29.7,30.07,SSW,202,6.9,6.9,40,0.00,SCT,,0.00,WeatherDisplay:10.37,2013-11-11 17:36:00,
2013-11-11 12:41:00,54.3,31.1,30.07,South,180,2.3,2.4,41,0.00,SCT,,0.00,WeatherDisplay:10.37,2013-11-11 17:41:00,
2013-11-11 12:46:00,54.5,30.0,30.07,SSW,202,10.4,10.4,39,0.00,SCT,,0.00,WeatherDisplay:10.37,2013-11-11 17:46:00,
2013-11-11 12:51:00,55.0,30.5,30.06,SW,225,8.1,8.1,39,0.00,SCT,,0.00,WeatherDisplay:10.37,2013-11-11 17:51:00,
2013-11-11 12:56:00,55.2,31.3,30.06,West,270,4.6,4.6,40,0.00,SCT,,0.00,WeatherDisplay:10.37,2013-11-11 17:56:00,
2013-11-11 13:01:00,55.8,31.8,30.06,West,270,4.6,4.6,40,0.00,SCT,,0.00,WeatherDisplay:10.37,2013-11-11 18:01:00,
2013-11-11 13:06:00,56.3,31.6,30.06,West,270,2.3,3.2,39,0.00,SCT,,0.00,WeatherDisplay:10.37,2013-11-11 18:06:00,
2013-11-11 13:11:00,56.1,31.5,30.06,West,270,4.6,4.6,39,0.00,SCT,,0.00,WeatherDisplay:10.37,2013-11-11 18:11:00,
2013-11-11 13:17:00,56.7,31.3,30.06,SW,225,9.2,9.2,38,0.00,SCT,,0.00,WeatherDisplay:10.37,2013-11-11 18:17:00,
2013-11-11 13:22:00,57.2,31.1,30.06,South,180,11.5,11.5,37,0.00,SCT,,0.00,WeatherDisplay:10.37,2013-11-11 18:22:00,
2013-11-11 13:27:00,56.5,30.5,30.06,SSW,202,5.8,5.8,37,0.00,SCT,,0.00,WeatherDisplay:10.37,2013-11-11 18:27:00,
2013-11-11 13:32:00,55.8,30.5,30.04,WSW,248,2.3,3.5,38,0.00,SCT,,0.00,WeatherDisplay:10.37,2013-11-11 18:32:00,
2013-11-11 13:37:00,55.8,30.5,30.04,SW,225,4.6,4.6,38,0.00,SCT,,0.00,WeatherDisplay:10.37,2013-11-11 18:37:00,
2013-11-11 13:42:00,55.2,29.4,30.04,North,0,3.5,3.5,37,0.00,SCT,,0.00,WeatherDisplay:10.37,2013-11-11 18:42:00,
2013-11-11 13:47:00,54.5,29.4,30.04,SW,225,8.1,8.1,38,0.00,SCT,,0.00,WeatherDisplay:10.37,2013-11-11 18:47:00,
2013-11-11 13:52:00,54.1,29.1,30.03,West,270,6.9,6.9,38,0.00,SCT,,0.00,WeatherDisplay:10.37,2013-11-11 18:52:00,
2013-11-11 13:57:00,54.3,29.9,30.03,West,270,8.1,8.1,39,0.00,SCT,,0.00,WeatherDisplay:10.37,2013-11-11 18:57:00,
2013-11-11 14:02:00,54.3,29.9,30.03,SSW,202,2.7,4.0,39,0.00,SCT,,0.00,WeatherDisplay:10.37,2013-11-11 19:02:00,
2013-11-11 14:07:00,54.9,30.3,30.03,SW,225,5.8,5.8,39,0.00,SCT,,0.00,WeatherDisplay:10.37,2013-11-11 19:07:00,
2013-11-11 14:12:00,56.1,31.5,30.03,SSE,158,3.5,3.5,39,0.00,SCT,,0.00,WeatherDisplay:10.37,2013-11-11 19:12:00,
2013-11-11 14:17:00,57.0,31.0,30.03,SW,225,4.6,4.6,37,0.00,SCT,,0.00,WeatherDisplay:10.37,2013-11-11 19:17:00,
2013-11-11 14:22:00,57.0,31.0,30.03,South,180,1.5,2.6,37,0.00,SCT,,0.00,WeatherDisplay:10.37,2013-11-11 19:22:00,
2013-11-11 14:27:00,56.1,30.2,30.03,SSE,158,5.8,5.8,37,0.00,SCT,,0.00,WeatherDisplay:10.37,2013-11-11 19:27:00,
2013-11-11 14:32:00,55.4,29.5,30.01,SSW,202,8.1,8.1,37,0.00,SCT,,0.00,WeatherDisplay:10.37,2013-11-11 19:32:00,
2013-11-11 14:37:00,54.5,29.4,30.01,South,180,8.6,8.6,38,0.00,SCT,,0.00,WeatherDisplay:10.37,2013-11-11 19:37:00,
2013-11-11 14:42:00,54.3,29.2,30.01,SSW,202,9.2,9.2,38,0.00,SCT,,0.00,WeatherDisplay:10.37,2013-11-11 19:42:00,
2013-11-11 14:47:00,54.0,29.5,30.01,North,0,10.4,10.4,39,0.00,SCT,,0.00,WeatherDisplay:10.37,2013-11-11 19:47:00,
2013-11-11 14:52:00,53.6,28.6,30.01,South,180,6.2,6.5,38,0.00,SCT,,0.00,WeatherDisplay:10.37,2013-11-11 19:52:00,
2013-11-11 14:57:00,53.4,29.1,30.01,South,180,10.4,10.4,39,0.00,SCT,,0.00,WeatherDisplay:10.37,2013-11-11 19:57:00,
2013-11-11 15:02:00,53.4,29.1,30.01,South,180,9.2,9.2,39,0.00,SCT,,0.00,WeatherDisplay:10.37,2013-11-11 20:02:00,
2013-11-11 15:07:00,53.6,29.2,30.01,SW,225,6.9,6.9,39,0.00,SCT,,0.00,WeatherDisplay:10.37,2013-11-11 20:07:00,
2013-11-11 15:12:00,53.6,29.8,30.00,SSW,202,3.5,3.9,40,0.00,SCT,,0.00,WeatherDisplay:10.37,2013-11-11 20:12:00,
2013-11-11 15:17:00,53.2,28.9,30.00,SSW,202,4.6,4.6,39,0.00,SCT,,0.00,WeatherDisplay:10.37,2013-11-11 20:17:00,
2013-11-11 15:22:00,53.1,29.4,30.00,SSW,202,5.8,5.8,40,0.00,SCT,,0.00,WeatherDisplay:10.37,2013-11-11 20:22:00,
2013-11-11 15:27:00,53.1,29.4,30.00,SSW,202,5.8,5.8,40,0.00,SCT,,0.00,WeatherDisplay:10.37,2013-11-11 20:27:00,
2013-11-11 15:32:00,53.2,29.5,30.00,SW,225,2.3,3.1,40,0.00,SCT,,0.00,WeatherDisplay:10.37,2013-11-11 20:32:00,
2013-11-11 15:37:00,53.2,29.5,30.00,SW,225,3.5,3.5,40,0.00,SCT,,0.00,WeatherDisplay:10.37,2013-11-11 20:37:00,
2013-11-11 15:42:00,53.6,29.8,30.00,West,270,2.4,2.4,40,0.00,SCT,,0.00,WeatherDisplay:10.37,2013-11-11 20:42:00,
2013-11-11 15:47:00,53.4,29.7,30.00,SSW,202,4.6,4.6,40,0.00,SCT,,0.00,WeatherDisplay:10.37,2013-11-11 20:47:00,
2013-11-11 15:52:00,53.2,29.5,30.00,SW,225,7.3,7.3,40,0.00,SCT,,0.00,WeatherDisplay:10.37,2013-11-11 20:52:00,
2013-11-11 15:57:00,53.2,29.5,30.00,SSW,202,5.8,5.8,40,0.00,SCT,,0.00,WeatherDisplay:10.37,2013-11-11 20:57:00,
2013-11-11 16:02:00,53.2,29.5,30.00,South,180,4.6,4.6,40,0.00,SCT,,0.00,WeatherDisplay:10.37,2013-11-11 21:02:00,
2013-11-11 16:07:00,53.1,29.4,30.00,South,180,6.2,6.2,40,0.00,SCT,,0.00,WeatherDisplay:10.37,2013-11-11 21:07:00,
2013-11-11 16:12:00,53.2,29.5,29.99,South,180,4.6,4.6,40,0.00,SCT,,0.00,WeatherDisplay:10.37,2013-11-11 21:12:00,
2013-11-11 16:17:00,53.2,29.5,29.99,SE,135,4.6,4.6,40,0.00,SCT,,0.00,WeatherDisplay:10.37,2013-11-11 21:17:00,
2013-11-11 16:22:00,53.2,29.5,29.99,SW,225,3.5,3.9,40,0.00,SCT,,0.00,WeatherDisplay:10.37,2013-11-11 21:22:00,
2013-11-11 16:27:00,53.1,29.4,29.99,South,180,5.8,5.8,40,0.00,SCT,,0.00,WeatherDisplay:10.37,2013-11-11 21:27:00,
2013-11-11 16:32:00,52.9,29.2,29.98,SSW,202,7.1,7.1,40,0.00,SCT,,0.00,WeatherDisplay:10.37,2013-11-11 21:32:00,
2013-11-11 16:37:00,52.7,29.6,29.98,South,180,8.1,8.1,41,0.00,SCT,,0.00,WeatherDisplay:10.37,2013-11-11 21:37:00,
2013-11-11 16:42:00,52.5,29.5,29.98,SSW,202,5.0,6.2,41,0.00,SCT,,0.00,WeatherDisplay:10.37,2013-11-11 21:42:00,
2013-11-11 16:47:00,52.5,30.1,29.98,South,180,4.6,5.3,42,0.00,SCT,,0.00,WeatherDisplay:10.37,2013-11-11 21:47:00,
2013-11-11 16:52:00,52.5,30.1,29.96,South,180,11.5,11.5,42,0.00,SCT,,0.00,WeatherDisplay:10.37,2013-11-11 21:52:00,
2013-11-11 16:57:00,52.3,29.9,29.96,South,180,5.8,5.8,42,0.00,SCT,,0.00,WeatherDisplay:10.37,2013-11-11 21:57:00,
2013-11-11 17:02:00,52.3,29.9,29.96,South,180,5.8,5.8,42,0.00,SCT,,0.00,WeatherDisplay:10.37,2013-11-11 22:02:00,
2013-11-11 17:07:00,52.5,30.6,29.96,South,180,9.2,9.2,43,0.00,SCT,,0.00,WeatherDisplay:10.37,2013-11-11 22:07:00,
2013-11-11 17:12:00,52.3,30.5,29.97,South,180,5.8,5.8,43,0.00,SCT,,0.00,WeatherDisplay:10.37,2013-11-11 22:12:00,
2013-11-11 17:17:00,52.2,30.9,29.97,South,180,8.1,8.1,44,0.00,SCT,,0.00,WeatherDisplay:10.37,2013-11-11 22:17:00,
2013-11-11 17:22:00,52.2,30.9,29.97,South,180,10.4,10.4,44,0.00,SCT,,0.00,WeatherDisplay:10.37,2013-11-11 22:22:00,
2013-11-11 17:27:00,52.2,30.9,29.97,South,180,5.8,5.8,44,0.00,SCT,,0.00,WeatherDisplay:10.37,2013-11-11 22:27:00,
2013-11-11 17:32:00,52.2,31.4,29.97,South,180,2.3,4.0,45,0.00,SCT,,0.00,WeatherDisplay:10.37,2013-11-11 22:32:00,
2013-11-11 17:37:00,52.2,31.4,29.97,WSW,248,4.6,4.6,45,0.00,SCT,,0.00,WeatherDisplay:10.37,2013-11-11 22:37:00,
2013-11-11 17:42:00,52.2,31.4,29.97,South,180,8.1,8.1,45,0.00,SCT,,0.00,WeatherDisplay:10.37,2013-11-11 22:42:00,
2013-11-11 17:47:00,52.2,31.4,29.97,SW,225,4.6,4.6,45,0.00,SCT,,0.00,WeatherDisplay:10.37,2013-11-11 22:47:00,
2013-11-11 17:52:00,52.0,31.3,29.96,SW,225,5.8,5.8,45,0.00,SCT,,0.00,WeatherDisplay:10.37,2013-11-11 22:52:00,
2013-11-11 17:57:00,52.2,32.0,29.96,SSW,202,11.5,11.5,46,0.00,SCT,,0.00,WeatherDisplay:10.37,2013-11-11 22:57:00,
2013-11-11 18:02:00,52.2,32.0,29.96,SSE,158,3.5,4.0,46,0.00,SCT,,0.00,WeatherDisplay:10.37,2013-11-11 23:02:00,
2013-11-11 18:07:00,52.2,31.4,29.96,South,180,11.5,11.5,45,0.00,SCT,,0.00,WeatherDisplay:10.37,2013-11-11 23:07:00,
2013-11-11 18:12:00,52.0,31.8,29.96,SSE,158,6.2,6.2,46,0.00,SCT,,0.00,WeatherDisplay:10.37,2013-11-11 23:12:00,
2013-11-11 18:17:00,52.0,31.8,29.96,South,180,9.2,9.2,46,0.00,SCT,,0.00,WeatherDisplay:10.37,2013-11-11 23:17:00,
2013-11-11 18:22:00,52.2,32.0,29.96,SW,225,9.6,9.6,46,0.00,SCT,,0.00,WeatherDisplay:10.37,2013-11-11 23:22:00,
2013-11-11 18:27:00,51.8,31.7,29.96,SSW,202,5.8,5.8,46,0.00,SCT,,0.00,WeatherDisplay:10.37,2013-11-11 23:27:00,
2013-11-11 18:32:00,51.8,31.7,29.96,South,180,5.8,5.8,46,0.00,SCT,,0.00,WeatherDisplay:10.37,2013-11-11 23:32:00,
2013-11-11 18:37:00,51.8,31.7,29.96,SSW,202,8.1,8.1,46,0.00,SCT,,0.00,WeatherDisplay:10.37,2013-11-11 23:37:00,
2013-11-11 18:42:00,51.8,31.7,29.96,SW,225,2.3,3.9,46,0.00,SCT,,0.00,WeatherDisplay:10.37,2013-11-11 23:42:00,
2013-11-11 18:47:00,51.6,32.0,29.96,South,180,6.9,6.9,47,0.00,SCT,,0.00,WeatherDisplay:10.37,2013-11-11 23:47:00,
2013-11-11 18:52:00,51.6,32.0,29.95,SSW,202,3.5,3.9,47,0.00,SCT,,0.00,WeatherDisplay:10.37,2013-11-11 23:52:00,
2013-11-11 18:57:00,51.6,32.0,29.95,South,180,8.1,8.1,47,0.00,SCT,,0.00,WeatherDisplay:10.37,2013-11-11 23:57:00,
2013-11-11 19:02:00,51.8,31.7,29.95,South,180,5.8,5.8,46,0.00,SCT,,0.00,WeatherDisplay:10.37,2013-11-12 00:02:00,
2013-11-11 19:07:00,51.6,32.0,29.95,SW,225,5.8,5.8,47,0.00,SCT,,0.00,WeatherDisplay:10.37,2013-11-12 00:07:00,
2013-11-11 19:12:00,51.8,31.7,29.95,NNE,22,3.5,3.5,46,0.00,SCT,,0.00,WeatherDisplay:10.37,2013-11-12 00:12:00,
2013-11-11 19:17:00,51.6,31.5,29.95,West,270,3.5,3.5,46,0.00,SCT,,0.00,WeatherDisplay:10.37,2013-11-12 00:17:00,
2013-11-11 19:22:00,51.6,31.5,29.95,SW,225,2.3,3.4,46,0.00,SCT,,0.00,WeatherDisplay:10.37,2013-11-12 00:22:00,
2013-11-11 19:27:00,51.4,31.3,29.95,South,180,5.8,5.8,46,0.00,SCT,,0.00,WeatherDisplay:10.37,2013-11-12 00:27:00,
2013-11-11 19:32:00,51.4,31.3,29.94,South,180,5.8,5.8,46,0.00,SCT,,0.00,WeatherDisplay:10.37,2013-11-12 00:32:00,
2013-11-11 19:37:00,51.4,31.3,29.94,South,180,3.5,3.5,46,0.00,SCT,,0.00,WeatherDisplay:10.37,2013-11-12 00:37:00,
2013-11-11 19:42:00,51.4,31.3,29.94,SW,225,3.5,3.5,46,0.00,SCT,,0.00,WeatherDisplay:10.37,2013-11-12 00:42:00,
2013-11-11 19:47:00,51.4,31.3,29.94,SSW,202,8.1,8.1,46,0.00,SCT,,0.00,WeatherDisplay:10.37,2013-11-12 00:47:00,
2013-11-11 19:52:00,51.4,31.3,29.94,South,180,3.5,4.0,46,0.00,SCT,,0.00,WeatherDisplay:10.37,2013-11-12 00:52:00,
2013-11-11 19:57:00,51.3,31.2,29.94,South,180,3.5,3.6,46,0.00,SCT,,0.00,WeatherDisplay:10.37,2013-11-12 00:57:00,
2013-11-11 20:02:00,51.4,31.3,29.94,WSW,248,6.9,6.9,46,0.00,SCT,,0.00,WeatherDisplay:10.37,2013-11-12 01:02:00,
2013-11-11 20:07:00,51.4,31.3,29.94,WSW,248,2.3,3.7,46,0.00,SCT,,0.00,WeatherDisplay:10.37,2013-11-12 01:07:00,
2013-11-11 20:12:00,51.3,31.2,29.94,West,270,6.9,6.9,46,0.00,SCT,,0.00,WeatherDisplay:10.37,2013-11-12 01:12:00,
2013-11-11 20:17:00,51.4,31.3,29.94,SW,225,6.9,6.9,46,0.00,SCT,,0.00,WeatherDisplay:10.37,2013-11-12 01:17:00,
2013-11-11 20:22:00,51.3,31.2,29.94,South,180,5.8,5.8,46,0.00,SCT,,0.00,WeatherDisplay:10.37,2013-11-12 01:22:00,
2013-11-11 20:27:00,51.3,31.7,29.94,SSW,202,2.3,3.1,47,0.00,SCT,,0.00,WeatherDisplay:10.37,2013-11-12 01:27:00,
2013-11-11 20:32:00,51.4,31.3,29.93,West,270,1.2,2.9,46,0.00,SCT,,0.00,WeatherDisplay:10.37,2013-11-12 01:32:00,
2013-11-11 20:37:00,51.4,31.3,29.93,South,180,10.4,10.4,46,0.00,SCT,,0.00,WeatherDisplay:10.37,2013-11-12 01:37:00,
2013-11-11 20:42:00,51.3,31.7,29.93,SSE,158,5.8,5.8,47,0.00,SCT,,0.00,WeatherDisplay:10.37,2013-11-12 01:42:00,
2013-11-11 20:47:00,51.3,31.7,29.93,SSW,202,8.1,8.1,47,0.00,SCT,,0.00,WeatherDisplay:10.37,2013-11-12 01:47:00,
2013-11-11 20:52:00,51.3,31.7,29.93,South,180,5.8,5.8,47,0.00,SCT,,0.00,WeatherDisplay:10.37,2013-11-12 01:52:00,
2013-11-11 20:57:00,51.4,31.9,29.93,North,0,10.4,10.4,47,0.00,SCT,,0.00,WeatherDisplay:10.37,2013-11-12 01:57:00,
2013-11-11 21:02:00,51.4,31.9,29.93,SSW,202,3.5,3.5,47,0.00,SCT,,0.00,WeatherDisplay:10.37,2013-11-12 02:02:00,
2013-11-11 21:07:00,51.4,31.9,29.93,SSW,202,4.6,4.6,47,0.00,SCT,,0.00,WeatherDisplay:10.37,2013-11-12 02:07:00,
2013-11-11 21:12:00,51.4,31.9,29.93,SSE,158,3.5,3.5,47,0.00,SCT,,0.00,WeatherDisplay:10.37,2013-11-12 02:12:00,
2013-11-11 21:17:00,51.4,31.9,29.93,SW,225,3.5,3.5,47,0.00,SCT,,0.00,WeatherDisplay:10.37,2013-11-12 02:17:00,
2013-11-11 21:22:00,51.3,31.7,29.93,WSW,248,6.9,6.9,47,0.00,SCT,,0.00,WeatherDisplay:10.37,2013-11-12 02:22:00,
2013-11-11 21:27:00,51.4,31.9,29.93,SSW,202,5.8,5.8,47,0.00,SCT,,0.00,WeatherDisplay:10.37,2013-11-12 02:27:00,
2013-11-11 21:32:00,51.4,31.9,29.92,SW,225,2.3,2.7,47,0.00,SCT,,0.00,WeatherDisplay:10.37,2013-11-12 02:32:00,
2013-11-11 21:37:00,51.3,31.7,29.92,WSW,248,8.1,8.1,47,0.00,SCT,,0.00,WeatherDisplay:10.37,2013-11-12 02:37:00,
2013-11-11 21:42:00,51.3,31.7,29.92,South,180,3.5,3.5,47,0.00,SCT,,0.00,WeatherDisplay:10.37,2013-11-12 02:42:00,
2013-11-11 21:47:00,51.3,32.2,29.92,West,270,3.5,3.5,48,0.00,SCT,,0.00,WeatherDisplay:10.37,2013-11-12 02:47:00,
2013-11-11 21:52:00,51.3,32.2,29.92,SSW,202,2.3,2.9,48,0.00,SCT,,0.00,WeatherDisplay:10.37,2013-11-12 02:52:00,
2013-11-11 21:57:00,51.4,32.4,29.92,SSW,202,4.6,4.6,48,0.00,SCT,,0.00,WeatherDisplay:10.37,2013-11-12 02:57:00,
2013-11-11 22:02:00,51.3,32.2,29.92,WSW,248,4.6,4.6,48,0.00,SCT,,0.00,WeatherDisplay:10.37,2013-11-12 03:02:00,
2013-11-11 22:07:00,51.1,32.1,29.92,SW,225,1.2,3.2,48,0.00,SCT,,0.00,WeatherDisplay:10.37,2013-11-12 03:07:00,
2013-11-11 22:12:00,51.3,32.2,29.91,SW,225,2.3,2.5,48,0.00,SCT,,0.00,WeatherDisplay:10.37,2013-11-12 03:12:00,
2013-11-11 22:17:00,51.3,32.2,29.91,SW,225,3.5,3.5,48,0.00,SCT,,0.00,WeatherDisplay:10.37,2013-11-12 03:17:00,
2013-11-11 22:22:00,51.4,32.4,29.91,SW,225,4.6,4.6,48,0.00,SCT,,0.00,WeatherDisplay:10.37,2013-11-12 03:22:00,
2013-11-11 22:27:00,51.1,32.1,29.91,South,180,2.3,2.3,48,0.00,SCT,,0.00,WeatherDisplay:10.37,2013-11-12 03:27:00,
2013-11-11 22:32:00,51.1,32.1,29.91,SW,225,2.3,2.3,48,0.00,SCT,,0.00,WeatherDisplay:10.37,2013-11-12 03:32:00,
2013-11-11 22:37:00,51.1,32.1,29.91,SSW,202,3.5,3.5,48,0.00,SCT,,0.00,WeatherDisplay:10.37,2013-11-12 03:37:00,
2013-11-11 22:43:00,51.1,32.6,29.91,WSW,248,4.6,4.6,49,0.00,SCT,,0.00,WeatherDisplay:10.37,2013-11-12 03:43:00,
2013-11-11 22:48:00,51.1,32.6,29.91,South,180,10.4,10.4,49,0.00,SCT,,0.00,WeatherDisplay:10.37,2013-11-12 03:48:00,
2013-11-11 22:53:00,51.1,32.6,29.91,West,270,3.5,3.5,49,0.00,SCT,,0.00,WeatherDisplay:10.37,2013-11-12 03:53:00,
2013-11-11 22:58:00,51.1,32.6,29.91,South,180,2.3,3.0,49,0.00,SCT,,0.00,WeatherDisplay:10.37,2013-11-12 03:58:00,
2013-11-11 23:03:00,51.1,32.6,29.91,West,270,2.3,2.4,49,0.00,SCT,,0.00,WeatherDisplay:10.37,2013-11-12 04:03:00,
2013-11-11 23:08:00,51.1,32.6,29.91,SW,225,3.5,3.5,49,0.00,SCT,,0.00,WeatherDisplay:10.37,2013-11-12 04:08:00,
2013-11-11 23:13:00,51.1,32.6,29.90,West,270,4.6,4.6,49,0.00,SCT,,0.00,WeatherDisplay:10.37,2013-11-12 04:13:00,
2013-11-11 23:18:00,51.1,32.6,29.90,SSW,202,4.6,4.6,49,0.00,SCT,,0.00,WeatherDisplay:10.37,2013-11-12 04:18:00,
2013-11-11 23:23:00,50.9,32.4,29.90,SW,225,3.5,3.5,49,0.00,SCT,,0.00,WeatherDisplay:10.37,2013-11-12 04:23:00,
2013-11-11 23:28:00,50.9,32.4,29.90,SW,225,3.5,3.5,49,0.00,SCT,,0.00,WeatherDisplay:10.37,2013-11-12 04:28:00,
2013-11-11 23:33:00,51.1,33.1,29.91,SSW,202,3.5,3.5,50,0.00,SCT,,0.00,WeatherDisplay:10.37,2013-11-12 04:33:00,
2013-11-11 23:38:00,51.1,33.1,29.91,SSW,202,3.5,3.5,50,0.00,SCT,,0.00,WeatherDisplay:10.37,2013-11-12 04:38:00,
2013-11-11 23:43:00,51.1,33.1,29.91,South,180,3.5,3.5,50,0.00,SCT,,0.00,WeatherDisplay:10.37,2013-11-12 04:43:00,
2013-11-11 23:48:00,51.1,33.1,29.91,South,180,3.7,3.7,50,0.00,SCT,,0.00,WeatherDisplay:10.37,2013-11-12 04:48:00,
2013-11-11 23:53:00,50.9,32.9,29.89,South,180,4.8,4.8,50,0.00,SCT,,0.00,WeatherDisplay:10.37,2013-11-12 04:53:00,
2013-11-11 23:58:00,51.1,33.1,29.89,WSW,248,3.5,3.5,50,0.00,SCT,,0.00,WeatherDisplay:10.37,2013-11-12 04:58:00,